createdAt,value
2018-04-11T00:01:45.740Z,4.30
2018-04-11T00:04:13.385Z,4.63
2018-04-11T00:06:40.984Z,4.57
2018-04-11T00:09:08.633Z,6.60
2018-04-11T00:11:36.269Z,5.60
2018-04-11T00:14:03.937Z,4.93
2018-04-11T00:16:31.526Z,4.53
2018-04-11T00:18:59.167Z,5.70
2018-04-11T00:21:26.777Z,4.53
2018-04-11T00:23:54.393Z,5.43
2018-04-11T00:26:21.981Z,5.20
2018-04-11T00:28:49.713Z,4.50
2018-04-11T00:31:17.297Z,5.73
2018-04-11T00:33:44.923Z,7.87
2018-04-11T00:36:12.509Z,4.90
2018-04-11T00:38:40.142Z,4.20
2018-04-11T00:41:07.752Z,5.60
2018-04-11T00:43:35.435Z,5.63
2018-04-11T00:46:03.056Z,5.17
2018-04-11T00:48:30.651Z,5.13
2018-04-11T00:50:58.285Z,6.43
2018-04-11T00:53:28.646Z,7.70
2018-04-11T00:55:56.289Z,7.60
2018-04-11T00:58:23.884Z,10.50
2018-04-11T01:00:51.496Z,7.00
2018-04-11T01:03:19.088Z,6.60
2018-04-11T01:05:46.729Z,8.97
2018-04-11T01:08:14.331Z,8.03
2018-04-11T01:10:42.116Z,8.13
2018-04-11T01:13:09.752Z,8.30
2018-04-11T01:15:37.421Z,8.33
2018-04-11T01:18:05.100Z,6.80
2018-04-11T01:20:32.887Z,8.10
2018-04-11T01:23:00.679Z,6.13
2018-04-11T01:25:28.380Z,5.73
2018-04-11T01:27:56.068Z,6.93
2018-04-11T01:30:31.478Z,7.23
2018-04-11T01:32:59.137Z,6.10
2018-04-11T01:35:26.812Z,7.53
2018-04-11T01:37:54.756Z,7.43
2018-04-11T01:40:22.510Z,6.60
2018-04-11T01:42:50.304Z,6.77
2018-04-11T01:45:17.988Z,7.20
2018-04-11T01:47:45.760Z,6.87
2018-04-11T01:50:13.348Z,7.43
2018-04-11T01:52:41.098Z,8.67
2018-04-11T01:55:08.699Z,8.63
2018-04-11T01:57:36.337Z,7.80
2018-04-11T02:00:03.925Z,10.80
2018-04-11T02:02:31.561Z,9.27
2018-04-11T02:04:59.379Z,11.83
2018-04-11T02:07:27.081Z,10.57
2018-04-11T02:09:54.719Z,12.37
2018-04-11T02:12:22.441Z,12.00
2018-04-11T02:14:50.280Z,10.90
2018-04-11T02:17:18.032Z,11.30
2018-04-11T02:19:45.714Z,11.20
2018-04-11T02:22:13.449Z,9.50
2018-04-11T02:24:41.146Z,9.80
2018-04-11T02:27:08.849Z,9.80
2018-04-11T02:29:36.566Z,7.97
2018-04-11T02:32:04.312Z,9.20
2018-04-11T02:34:31.934Z,9.63
2018-04-11T02:36:59.577Z,8.27
2018-04-11T02:39:27.295Z,9.37
2018-04-11T02:41:54.883Z,8.50
2018-04-11T02:44:22.670Z,8.97
2018-04-11T02:46:50.276Z,8.00
2018-04-11T02:49:18.180Z,8.40
2018-04-11T02:51:45.916Z,10.20
2018-04-11T02:54:13.653Z,10.70
2018-04-11T02:56:41.281Z,9.47
2018-04-11T02:59:08.945Z,8.93
2018-04-11T03:01:36.614Z,8.97
2018-04-11T03:04:04.428Z,9.80
2018-04-11T03:06:32.073Z,9.20
2018-04-11T03:08:59.737Z,11.83
2018-04-11T03:11:27.416Z,8.30
2018-04-11T03:13:55.069Z,8.20
2018-04-11T03:16:23.023Z,9.73
2018-04-11T03:18:50.867Z,8.47
2018-04-11T03:21:18.557Z,10.03
2018-04-11T03:23:46.213Z,10.40
2018-04-11T03:26:13.967Z,9.23
2018-04-11T03:28:41.651Z,8.43
2018-04-11T03:31:09.409Z,9.63
2018-04-11T03:33:37.026Z,10.27
2018-04-11T03:36:04.676Z,12.10
2018-04-11T03:38:32.358Z,9.87
2018-04-11T03:40:59.993Z,10.10
2018-04-11T03:43:27.791Z,9.20
2018-04-11T03:45:55.475Z,10.97
2018-04-11T03:48:23.089Z,9.73
2018-04-11T03:50:50.761Z,10.63
2018-04-11T03:53:18.427Z,9.30
2018-04-11T03:55:46.177Z,11.83
2018-04-11T03:58:13.792Z,10.97
2018-04-11T04:00:41.469Z,10.90
2018-04-11T04:03:09.122Z,9.00
2018-04-11T04:05:36.760Z,38.57
2018-04-11T04:08:04.442Z,18.43
2018-04-11T04:10:32.054Z,11.97
2018-04-11T04:12:59.726Z,10.70
2018-04-11T04:15:38.896Z,10.20
2018-04-11T04:18:18.230Z,10.73
2018-04-11T04:20:45.889Z,12.57
2018-04-11T04:23:13.548Z,9.90
2018-04-11T04:25:41.166Z,10.00
2018-04-11T04:28:08.825Z,9.57
2018-04-11T04:30:36.437Z,10.00
2018-04-11T04:33:05.832Z,11.30
2018-04-11T04:35:33.626Z,11.63
2018-04-11T04:38:01.299Z,50.87
2018-04-11T04:40:28.909Z,14.20
2018-04-11T04:42:56.606Z,12.53
2018-04-11T04:45:24.315Z,12.00
2018-04-11T04:47:52.008Z,14.53
2018-04-11T04:50:19.676Z,14.60
2018-04-11T04:52:47.406Z,12.17
2018-04-11T04:55:15.037Z,12.00
2018-04-11T04:57:42.677Z,12.80
2018-04-11T05:00:10.367Z,12.90
2018-04-11T05:02:38.034Z,12.20
2018-04-11T05:05:05.745Z,13.73
2018-04-11T05:07:33.362Z,13.67
2018-04-11T05:10:01.011Z,14.03
2018-04-11T05:12:28.668Z,12.57
2018-04-11T05:14:56.330Z,14.03
2018-04-11T05:17:24.100Z,15.73
2018-04-11T05:19:51.750Z,16.27
2018-04-11T05:22:19.364Z,15.60
2018-04-11T05:24:47.446Z,13.45
2018-04-11T05:27:15.636Z,12.47
2018-04-11T05:29:43.712Z,15.10
2018-04-11T05:32:11.868Z,17.50
2018-04-11T05:34:40.861Z,14.17
2018-04-11T05:37:09.006Z,13.00
2018-04-11T05:39:37.502Z,14.50
2018-04-11T05:42:06.305Z,15.30
2018-04-11T05:44:34.697Z,14.90
2018-04-11T05:52:45.947Z,12.10
2018-04-11T05:55:18.996Z,10.03
2018-04-11T06:02:21.969Z,10.60
2018-04-11T06:04:56.753Z,8.97
2018-04-11T06:07:25.490Z,8.80
2018-04-11T06:09:53.186Z,8.10
2018-04-11T06:12:20.880Z,8.70
2018-04-11T06:14:48.535Z,8.53
2018-04-11T06:17:16.225Z,6.70
2018-04-11T06:19:43.857Z,7.87
2018-04-11T06:22:11.565Z,9.00
2018-04-11T06:24:39.194Z,10.03
2018-04-11T06:27:06.896Z,8.73
2018-04-11T06:29:34.535Z,7.13
2018-04-11T06:32:02.229Z,7.57
2018-04-11T06:34:29.855Z,7.27
2018-04-11T06:36:57.506Z,7.77
2018-04-11T06:39:25.154Z,9.23
2018-04-11T06:41:52.837Z,5.97
2018-04-11T06:44:20.452Z,7.00
2018-04-11T06:46:48.101Z,7.73
2018-04-11T06:49:15.773Z,8.50
2018-04-11T06:51:43.381Z,6.93
2018-04-11T06:54:11.051Z,6.53
2018-04-11T06:56:38.690Z,7.33
2018-04-11T06:59:06.346Z,6.43
2018-04-11T07:01:33.940Z,6.80
2018-04-11T07:04:01.600Z,7.93
2018-04-11T07:06:29.203Z,9.03
2018-04-11T07:08:56.862Z,9.07
2018-04-11T07:11:24.497Z,9.23
2018-04-11T07:13:52.163Z,11.47
2018-04-11T07:16:19.794Z,12.37
2018-04-11T07:18:47.607Z,10.93
2018-04-11T07:21:15.227Z,9.97
2018-04-11T07:23:42.881Z,10.27
2018-04-11T07:26:10.478Z,9.47
2018-04-11T07:28:38.077Z,8.93
2018-04-11T07:31:05.729Z,10.40
2018-04-11T07:33:33.309Z,9.93
2018-04-11T07:36:01.051Z,9.93
2018-04-11T07:38:28.717Z,8.50
2018-04-11T07:40:56.344Z,6.17
2018-04-11T07:43:23.954Z,7.07
2018-04-11T07:45:51.744Z,7.70
2018-04-11T07:48:19.368Z,9.93
2018-04-11T07:50:47.069Z,11.50
2018-04-11T07:53:14.746Z,9.30
2018-04-11T07:55:42.392Z,7.70
2018-04-11T07:58:09.992Z,7.37
2018-04-11T08:00:37.651Z,9.20
2018-04-11T08:03:05.472Z,7.43
2018-04-11T08:05:33.123Z,7.17
2018-04-11T08:08:00.800Z,12.93
2018-04-11T08:10:28.413Z,8.87
2018-04-11T08:12:56.075Z,7.70
2018-04-11T08:15:23.703Z,7.97
2018-04-11T08:17:51.341Z,8.00
2018-04-11T08:20:18.957Z,9.43
2018-04-11T08:22:46.642Z,9.20
2018-04-11T08:25:14.268Z,9.10
2018-04-11T08:27:41.993Z,12.17
2018-04-11T08:30:09.730Z,10.23
2018-04-11T08:32:37.648Z,8.73
2018-04-11T08:35:05.313Z,8.07
2018-04-11T08:37:33.051Z,7.40
2018-04-11T08:40:00.711Z,7.97
2018-04-11T08:42:28.356Z,7.37
2018-04-11T08:44:55.985Z,8.63
2018-04-11T08:47:23.718Z,10.87
2018-04-11T08:49:51.294Z,9.90
2018-04-11T08:52:18.916Z,7.50
2018-04-11T08:54:46.581Z,11.30
2018-04-11T08:57:14.211Z,10.37
2018-04-11T08:59:41.941Z,9.07
2018-04-11T09:02:09.558Z,9.07
2018-04-11T09:04:37.240Z,9.23
2018-04-11T09:07:04.861Z,7.57
2018-04-11T09:09:32.525Z,9.53
2018-04-11T09:12:00.222Z,8.07
2018-04-11T09:14:27.928Z,9.50
2018-04-11T09:16:55.547Z,7.77
2018-04-11T09:19:23.391Z,9.30
2018-04-11T09:21:51.052Z,7.73
2018-04-11T09:24:18.725Z,7.00
2018-04-11T09:26:46.369Z,7.77
2018-04-11T09:29:14.092Z,8.87
2018-04-11T09:31:41.879Z,7.43
2018-04-11T09:34:09.542Z,11.27
2018-04-11T09:36:37.252Z,9.30
2018-04-11T09:39:05.500Z,10.40
2018-04-11T09:41:33.192Z,10.00
2018-04-11T09:44:00.811Z,11.40
2018-04-11T09:46:28.514Z,12.73
2018-04-11T09:48:56.160Z,11.83
2018-04-11T09:51:23.885Z,12.63
2018-04-11T09:53:51.488Z,14.27
2018-04-11T09:56:19.160Z,13.97
2018-04-11T09:58:46.774Z,15.83
2018-04-11T10:01:18.263Z,19.07
2018-04-11T10:03:45.873Z,15.50
2018-04-11T10:06:13.514Z,15.10
2018-04-11T10:08:41.129Z,16.67
2018-04-11T10:11:09.123Z,17.70
2018-04-11T10:13:36.762Z,16.90
2018-04-11T10:16:04.417Z,16.20
2018-04-11T10:18:32.188Z,17.20
2018-04-11T10:20:59.901Z,16.97
2018-04-11T10:23:27.524Z,18.37
2018-04-11T10:25:55.404Z,15.80
2018-04-11T10:28:23.012Z,15.23
2018-04-11T10:30:50.730Z,18.27
2018-04-11T10:33:18.565Z,16.00
2018-04-11T10:35:46.178Z,14.20
2018-04-11T10:38:13.825Z,16.97
2018-04-11T10:40:41.430Z,15.20
2018-04-11T10:43:09.133Z,13.67
2018-04-11T10:45:36.768Z,13.30
2018-04-11T10:48:04.446Z,13.97
2018-04-11T10:50:32.090Z,12.60
2018-04-11T10:52:59.860Z,15.93
2018-04-11T10:55:27.464Z,13.23
2018-04-11T10:57:55.133Z,15.73
2018-04-11T11:00:22.766Z,13.00
2018-04-11T11:02:50.431Z,12.50
2018-04-11T11:05:18.054Z,11.90
2018-04-11T11:07:45.732Z,13.40
2018-04-11T11:10:13.332Z,15.93
2018-04-11T11:12:40.999Z,13.37
2018-04-11T11:15:08.652Z,12.93
2018-04-11T11:17:36.324Z,14.27
2018-04-11T11:20:04.011Z,14.90
2018-04-11T11:22:31.666Z,19.00
2018-04-11T11:24:59.354Z,12.93
2018-04-11T11:27:26.980Z,20.63
2018-04-11T11:29:54.646Z,11.47
2018-04-11T11:32:22.294Z,14.07
2018-04-11T11:34:49.945Z,15.00
2018-04-11T11:37:17.667Z,13.80
2018-04-11T11:39:45.384Z,13.57
2018-04-11T11:42:13.046Z,15.00
2018-04-11T11:44:40.774Z,15.50
2018-04-11T11:47:08.411Z,16.73
2018-04-11T11:49:36.222Z,16.93
2018-04-11T11:52:03.923Z,15.60
2018-04-11T11:54:31.714Z,18.40
2018-04-11T11:56:59.359Z,14.90
2018-04-11T11:59:27.043Z,16.57
2018-04-11T12:01:54.673Z,15.60
2018-04-11T12:04:22.444Z,13.70
2018-04-11T12:06:50.115Z,14.63
2018-04-11T12:09:17.828Z,14.00
2018-04-11T12:11:45.486Z,15.70
2018-04-11T12:14:13.194Z,15.33
2018-04-11T12:16:40.825Z,15.43
2018-04-11T12:19:08.535Z,14.03
2018-04-11T12:21:36.179Z,15.47
2018-04-11T12:24:03.974Z,16.33
2018-04-11T12:26:31.673Z,14.27
2018-04-11T12:28:59.315Z,15.20
2018-04-11T12:31:26.981Z,14.50
2018-04-11T12:33:54.738Z,13.80
2018-04-11T12:36:22.432Z,16.50
2018-04-11T12:38:50.069Z,16.47
2018-04-11T12:41:17.758Z,15.47
2018-04-11T12:43:45.418Z,16.50
2018-04-11T12:46:13.069Z,18.90
2018-04-11T12:48:40.724Z,18.00
2018-04-11T12:51:09.011Z,17.57
2018-04-11T12:53:36.663Z,16.13
2018-04-11T12:56:04.333Z,15.50
2018-04-11T12:58:32.060Z,15.67
2018-04-11T13:00:59.997Z,15.70
2018-04-11T13:03:27.392Z,20.13
2018-04-11T13:05:55.076Z,20.47
2018-04-11T13:08:22.747Z,15.97
2018-04-11T13:10:50.352Z,16.70
2018-04-11T13:13:17.993Z,16.60
2018-04-11T13:15:45.630Z,17.57
2018-04-11T13:18:13.377Z,15.63
2018-04-11T13:20:41.056Z,29.73
2018-04-11T13:23:08.695Z,18.93
2018-04-11T13:25:36.489Z,20.10
2018-04-11T13:28:04.081Z,19.60
2018-04-11T13:30:31.755Z,19.03
2018-04-11T13:32:59.411Z,21.10
2018-04-11T13:35:27.050Z,21.10
2018-04-11T13:37:54.711Z,19.87
2018-04-11T13:40:22.339Z,24.17
2018-04-11T13:42:50.134Z,22.93
2018-04-11T13:45:17.760Z,19.60
2018-04-11T13:47:45.403Z,20.13
2018-04-11T13:50:13.005Z,25.53
2018-04-11T13:52:40.658Z,21.50
2018-04-11T13:55:08.315Z,19.57
2018-04-11T13:57:35.997Z,25.60
2018-04-11T14:00:03.669Z,24.10
2018-04-11T14:02:31.325Z,27.33
2018-04-11T14:04:58.966Z,32.03
2018-04-11T14:07:26.603Z,24.17
2018-04-11T14:09:54.258Z,27.90
2018-04-11T14:12:21.904Z,24.90
2018-04-11T14:14:49.576Z,30.27
2018-04-11T14:17:17.237Z,30.27
2018-04-11T14:19:44.911Z,30.77
2018-04-11T14:22:12.520Z,34.37
2018-04-11T14:24:40.153Z,30.93
2018-04-11T14:27:07.869Z,30.23
2018-04-11T14:29:35.533Z,25.90
2018-04-11T14:32:03.151Z,23.10
2018-04-11T14:34:31.017Z,23.93
2018-04-11T14:36:58.712Z,25.40
2018-04-11T14:39:26.423Z,27.40
2018-04-11T14:41:54.047Z,26.27
2018-04-11T14:44:21.686Z,24.37
2018-04-11T14:46:49.344Z,23.73
2018-04-11T14:49:16.945Z,26.00
2018-04-11T14:51:44.592Z,19.50
2018-04-11T14:54:12.238Z,18.60
2018-04-11T14:56:39.934Z,19.17
2018-04-11T14:59:07.563Z,18.50
2018-04-11T15:01:35.237Z,15.60
2018-04-11T15:04:02.857Z,15.20
2018-04-11T15:06:30.517Z,16.07
2018-04-11T15:08:58.281Z,15.70
2018-04-11T15:11:25.937Z,14.33
2018-04-11T15:13:53.552Z,14.10
2018-04-11T15:16:21.209Z,15.07
2018-04-11T15:18:48.813Z,13.57
2018-04-11T15:21:16.579Z,12.53
2018-04-11T15:23:44.228Z,13.90
2018-04-11T15:26:11.822Z,18.10
2018-04-11T15:28:39.469Z,15.17
2018-04-11T15:31:07.085Z,15.57
2018-04-11T15:33:34.735Z,14.77
2018-04-11T15:36:02.336Z,14.50
2018-04-11T15:38:29.976Z,13.40
2018-04-11T15:40:57.634Z,14.07
2018-04-11T15:43:25.333Z,13.70
2018-04-11T15:45:52.945Z,11.70
2018-04-11T15:48:20.574Z,10.30
2018-04-11T15:50:48.217Z,10.83
2018-04-11T15:53:15.970Z,18.50
2018-04-11T15:55:43.682Z,9.63
2018-04-11T15:58:11.515Z,10.77
2018-04-11T16:00:39.100Z,9.53
2018-04-11T16:03:06.738Z,10.23
2018-04-11T16:05:34.325Z,8.00
2018-04-11T16:08:01.989Z,9.20
2018-04-11T16:10:29.705Z,9.57
2018-04-11T16:12:57.644Z,12.30
2018-04-11T16:15:25.309Z,13.20
2018-04-11T16:17:52.921Z,11.00
2018-04-11T16:20:20.560Z,9.47
2018-04-11T16:22:48.189Z,10.50
2018-04-11T16:25:15.827Z,10.57
2018-04-11T16:27:43.456Z,9.63
2018-04-11T16:30:11.127Z,8.33
2018-04-11T16:32:38.937Z,8.40
2018-04-11T16:35:06.598Z,6.47
2018-04-11T16:37:34.256Z,7.23
2018-04-11T16:40:01.934Z,5.00
2018-04-11T16:42:29.569Z,4.20
2018-04-11T16:44:57.259Z,4.77
2018-04-11T16:47:24.955Z,4.97
2018-04-11T16:49:52.586Z,5.73
2018-04-11T16:52:20.255Z,3.87
2018-04-11T16:54:47.866Z,2.70
2018-04-11T16:57:15.509Z,4.07
2018-04-11T16:59:43.210Z,3.83
2018-04-11T17:02:10.925Z,3.67
2018-04-11T17:04:38.547Z,4.10
2018-04-11T17:07:06.237Z,5.07
2018-04-11T17:09:34.087Z,4.07
2018-04-11T17:12:01.734Z,3.77
2018-04-11T17:14:29.394Z,3.13
2018-04-11T17:16:57.136Z,3.83
2018-04-11T17:19:24.803Z,3.70
2018-04-11T17:22:03.941Z,2.90
2018-04-11T17:24:43.193Z,2.93
2018-04-11T17:27:22.556Z,3.23
2018-04-11T17:30:01.803Z,3.73
2018-04-11T17:32:29.440Z,2.90
2018-04-11T17:34:57.098Z,3.57
2018-04-11T17:37:24.841Z,3.20
2018-04-11T17:39:52.510Z,3.63
2018-04-11T17:42:20.177Z,3.23
2018-04-11T17:44:47.784Z,3.13
2018-04-11T17:47:15.425Z,3.10
2018-04-11T17:49:43.026Z,3.53
2018-04-11T17:52:10.841Z,3.97
2018-04-11T17:54:38.453Z,4.13
2018-04-11T17:57:06.103Z,3.50
2018-04-11T17:59:33.785Z,3.57
2018-04-11T18:02:01.509Z,4.00
2018-04-11T18:04:29.147Z,4.13
2018-04-11T18:06:56.786Z,3.90
2018-04-11T18:09:24.461Z,5.10
2018-04-11T18:11:52.096Z,4.07
2018-04-11T18:14:19.837Z,4.30
2018-04-11T18:16:47.503Z,4.30
2018-04-11T18:19:15.206Z,4.70
2018-04-11T18:21:42.879Z,4.20
2018-04-11T18:24:10.522Z,5.23
2018-04-11T18:26:38.126Z,5.33
2018-04-11T18:29:05.770Z,4.87
2018-04-11T18:31:33.381Z,4.50
2018-04-11T18:34:01.080Z,5.47
2018-04-11T18:36:28.689Z,6.03
2018-04-11T18:38:56.398Z,5.30
2018-04-11T18:41:24.071Z,4.70
2018-04-11T18:43:51.721Z,4.60
2018-04-11T18:46:19.363Z,3.90
2018-04-11T18:48:46.954Z,5.20
2018-04-11T18:51:14.593Z,5.73
2018-04-11T18:53:42.221Z,5.30
2018-04-11T18:56:10.710Z,82.37
2018-04-11T18:58:38.330Z,35.43
2018-04-11T19:01:06.029Z,10.67
2018-04-11T19:03:33.655Z,6.13
2018-04-11T19:06:01.302Z,5.67
2018-04-11T19:08:29.024Z,5.93
2018-04-11T19:10:56.647Z,5.53
2018-04-11T19:13:24.298Z,5.63
2018-04-11T19:15:51.896Z,6.73
2018-04-11T19:18:19.473Z,4.87
2018-04-11T19:20:47.104Z,6.00
2018-04-11T19:23:14.717Z,4.00
2018-04-11T19:25:42.659Z,7.53
2018-04-11T19:28:10.270Z,8.80
2018-04-11T19:30:37.914Z,4.80
2018-04-11T19:33:05.575Z,8.77
2018-04-11T19:35:33.215Z,7.10
2018-04-11T19:38:00.939Z,7.43
2018-04-11T19:40:28.572Z,6.50
2018-04-11T19:42:56.243Z,8.73
2018-04-11T19:45:23.849Z,7.20
2018-04-11T19:47:51.561Z,8.30
2018-04-11T19:50:19.182Z,7.70
2018-04-11T19:52:46.848Z,85.23
2018-04-11T19:55:14.501Z,124.13
2018-04-11T19:57:42.194Z,29.00
2018-04-11T20:00:09.838Z,15.83
2018-04-11T20:02:37.497Z,9.23
2018-04-11T20:05:05.125Z,7.83
2018-04-11T20:07:32.833Z,8.07
2018-04-11T20:10:00.443Z,6.97
2018-04-11T20:12:28.110Z,8.63
2018-04-11T20:14:55.742Z,8.73
2018-04-11T20:17:23.421Z,8.50
2018-04-11T20:19:51.069Z,9.13
2018-04-11T20:22:18.711Z,8.67
2018-04-11T20:24:46.427Z,7.70
2018-04-11T20:27:14.170Z,10.33
2018-04-11T20:29:41.941Z,14.50
2018-04-11T20:32:09.608Z,11.03
2018-04-11T20:34:37.307Z,9.97
2018-04-11T20:37:05.071Z,9.63
2018-04-11T20:39:32.740Z,9.87
2018-04-11T20:42:00.493Z,8.37
2018-04-11T20:44:28.240Z,9.80
2018-04-11T20:46:55.946Z,8.57
2018-04-11T20:49:23.588Z,9.70
2018-04-11T20:51:51.270Z,9.80
2018-04-11T20:54:19.021Z,10.60
2018-04-11T20:56:46.724Z,10.40
2018-04-11T20:59:14.694Z,11.37
2018-04-11T21:01:42.508Z,9.10
2018-04-11T21:04:10.117Z,8.40
2018-04-11T21:06:37.824Z,11.33
2018-04-11T21:09:05.518Z,9.20
2018-04-11T21:11:33.178Z,8.80
2018-04-11T21:14:00.785Z,8.33
2018-04-11T21:16:28.449Z,9.67
2018-04-11T21:18:56.113Z,9.13
2018-04-11T21:21:23.895Z,10.50
2018-04-11T21:23:51.547Z,9.83
2018-04-11T21:26:19.264Z,7.93
2018-04-11T21:28:46.968Z,8.40
2018-04-11T21:31:14.678Z,9.27
2018-04-11T21:33:42.322Z,10.83
2018-04-11T21:36:10.005Z,9.60
2018-04-11T21:38:37.609Z,9.50
2018-04-11T21:41:05.320Z,9.07
2018-04-11T21:43:32.969Z,10.30
2018-04-11T21:46:00.641Z,9.77
2018-04-11T21:48:28.292Z,10.20
2018-04-11T21:50:55.971Z,9.80
2018-04-11T21:53:23.601Z,10.20
2018-04-11T21:55:51.215Z,9.43
2018-04-11T21:58:18.869Z,9.80
2018-04-11T22:00:46.507Z,8.80
2018-04-11T22:03:14.190Z,11.00
2018-04-11T22:05:41.794Z,10.20
2018-04-11T22:08:09.435Z,15.13
2018-04-11T22:10:37.033Z,8.73
2018-04-11T22:13:04.695Z,8.30
2018-04-11T22:15:32.338Z,9.47
2018-04-11T22:18:00.070Z,8.37
2018-04-11T22:20:27.675Z,8.70
2018-04-11T22:22:55.333Z,8.80
2018-04-11T22:25:22.977Z,10.53
2018-04-11T22:27:50.622Z,9.40
2018-04-11T22:30:18.271Z,8.40
2018-04-11T22:32:45.965Z,7.43
2018-04-11T22:35:13.616Z,9.47
2018-04-11T22:37:41.265Z,8.30
2018-04-11T22:40:08.932Z,7.90
2018-04-11T22:42:36.585Z,8.33
2018-04-11T22:45:04.273Z,9.13
2018-04-11T22:47:31.971Z,7.50
2018-04-11T22:49:59.778Z,6.70
2018-04-11T22:52:27.413Z,9.17
2018-04-11T22:54:55.087Z,7.37
2018-04-11T22:57:22.710Z,6.97
2018-04-11T22:59:50.341Z,7.93
2018-04-11T23:02:17.966Z,8.30
2018-04-11T23:04:46.155Z,7.60
2018-04-11T23:07:13.973Z,8.03
2018-04-11T23:09:41.721Z,8.40
2018-04-11T23:12:17.312Z,6.40
2018-04-11T23:14:45.074Z,8.00
2018-04-11T23:17:13.163Z,8.20
2018-04-11T23:19:40.927Z,7.33
2018-04-11T23:22:08.854Z,6.43
2018-04-11T23:24:36.765Z,7.60
2018-04-11T23:27:04.549Z,7.47
2018-04-11T23:29:32.424Z,10.53
2018-04-11T23:32:00.205Z,7.93
2018-04-11T23:34:27.948Z,8.20
2018-04-11T23:36:55.786Z,6.97
2018-04-11T23:39:23.451Z,8.03
2018-04-11T23:41:51.203Z,8.10
2018-04-11T23:44:18.836Z,7.03
2018-04-11T23:46:46.924Z,7.60
2018-04-11T23:49:14.773Z,8.40
2018-04-11T23:51:42.512Z,8.17
2018-04-11T23:54:10.283Z,8.07
2018-04-11T23:56:38.023Z,8.73
2018-04-11T23:59:05.814Z,7.43
